createdAt,value
2022-12-09T00:02:13.543Z,2.70
2022-12-09T00:04:42.402Z,2.70
2022-12-09T00:07:11.155Z,2.70
2022-12-09T00:09:39.895Z,2.70
2022-12-09T00:12:10.029Z,2.90
2022-12-09T00:14:38.935Z,2.70
2022-12-09T00:17:07.663Z,2.70
2022-12-09T00:19:36.724Z,2.70
2022-12-09T00:22:05.264Z,2.70
2022-12-09T00:24:33.910Z,2.70
2022-12-09T00:27:02.701Z,2.60
2022-12-09T00:29:32.800Z,2.60
2022-12-09T00:32:01.467Z,2.60
2022-12-09T00:34:30.052Z,2.60
2022-12-09T00:36:58.655Z,2.60
2022-12-09T00:39:27.552Z,2.60
2022-12-09T00:41:56.073Z,2.60
2022-12-09T00:44:24.615Z,2.60
2022-12-09T00:46:54.834Z,2.60
2022-12-09T00:49:23.738Z,2.60
2022-12-09T00:51:54.088Z,2.60
2022-12-09T00:54:23.905Z,2.60
2022-12-09T00:56:52.491Z,2.60
2022-12-09T00:59:21.047Z,2.60
2022-12-09T01:01:49.909Z,2.60
2022-12-09T01:04:21.388Z,2.60
2022-12-09T01:06:50.028Z,2.50
2022-12-09T01:09:19.049Z,2.50
2022-12-09T01:11:47.959Z,2.50
2022-12-09T01:14:16.552Z,2.40
2022-12-09T01:16:45.505Z,2.40
2022-12-09T01:19:15.142Z,2.40
2022-12-09T01:21:45.065Z,2.40
2022-12-09T01:24:15.429Z,2.40
2022-12-09T01:26:44.354Z,2.40
2022-12-09T01:29:13.210Z,2.40
2022-12-09T01:31:42.195Z,2.40
2022-12-09T01:34:10.863Z,2.40
2022-12-09T01:36:39.625Z,2.40
2022-12-09T01:39:10.931Z,2.40
2022-12-09T01:41:39.876Z,2.40
2022-12-09T01:44:13.140Z,2.40
2022-12-09T01:46:42.724Z,2.40
2022-12-09T01:49:15.490Z,2.40
2022-12-09T01:51:46.194Z,2.40
2022-12-09T01:54:17.992Z,2.40
2022-12-09T01:56:47.086Z,2.40
2022-12-09T01:59:17.135Z,2.40
2022-12-09T02:01:49.504Z,2.40
2022-12-09T02:04:18.774Z,2.40
2022-12-09T02:06:47.625Z,2.40
2022-12-09T02:09:20.908Z,2.40
2022-12-09T02:12:11.361Z,2.40
2022-12-09T02:14:44.095Z,2.80
2022-12-09T02:17:26.878Z,2.40
2022-12-09T02:20:06.300Z,2.40
2022-12-09T02:22:41.547Z,2.40
2022-12-09T02:25:27.725Z,2.40
2022-12-09T02:28:22.945Z,2.40
2022-12-09T02:30:59.987Z,2.40
2022-12-09T02:33:42.001Z,2.40
2022-12-09T02:36:18.992Z,2.40
2022-12-09T02:38:52.239Z,2.40
2022-12-09T02:41:24.969Z,2.40
2022-12-09T02:43:57.563Z,2.40
2022-12-09T02:46:31.902Z,2.50
2022-12-09T02:49:01.511Z,2.40
2022-12-09T02:51:35.332Z,2.40
2022-12-09T02:54:10.754Z,2.40
2022-12-09T02:56:45.450Z,2.40
2022-12-09T02:59:14.165Z,2.40
2022-12-09T03:01:50.230Z,2.40
2022-12-09T03:04:24.141Z,2.50
2022-12-09T03:06:57.776Z,2.50
2022-12-09T03:09:30.945Z,2.50
2022-12-09T03:12:02.856Z,2.50
2022-12-09T03:14:38.491Z,2.50
2022-12-09T03:17:14.081Z,2.50
2022-12-09T03:19:47.284Z,2.50
2022-12-09T03:22:24.168Z,2.50
2022-12-09T03:24:58.795Z,2.50
2022-12-09T03:27:31.781Z,2.50
2022-12-09T03:30:03.251Z,2.60
2022-12-09T03:32:33.987Z,2.60
2022-12-09T03:35:06.351Z,2.60
2022-12-09T03:37:37.496Z,2.60
2022-12-09T03:40:13.920Z,2.60
2022-12-09T03:42:47.914Z,2.60
2022-12-09T03:45:19.007Z,2.60
2022-12-09T03:47:48.272Z,2.60
2022-12-09T03:50:17.122Z,2.60
2022-12-09T03:52:51.074Z,2.60
2022-12-09T03:55:25.881Z,2.60
2022-12-09T03:57:58.752Z,2.60
2022-12-09T04:00:27.739Z,2.60
2022-12-09T04:02:56.511Z,2.60
2022-12-09T04:05:25.337Z,2.60
2022-12-09T04:07:55.283Z,2.60
2022-12-09T04:10:23.909Z,2.60
2022-12-09T04:12:52.695Z,2.60
2022-12-09T04:15:21.472Z,2.60
2022-12-09T04:17:50.211Z,2.60
2022-12-09T04:20:19.498Z,2.60
2022-12-09T04:22:48.108Z,2.60
2022-12-09T04:25:18.299Z,2.50
2022-12-09T04:27:46.864Z,2.50
2022-12-09T04:30:15.621Z,2.50
2022-12-09T04:32:45.072Z,2.50
2022-12-09T04:35:13.851Z,2.50
2022-12-09T04:37:43.220Z,2.60
2022-12-09T04:40:18.036Z,2.50
2022-12-09T04:42:51.384Z,2.60
2022-12-09T04:45:20.255Z,2.60
2022-12-09T04:47:49.431Z,2.50
2022-12-09T04:50:18.379Z,2.60
2022-12-09T04:52:46.904Z,2.60
2022-12-09T04:55:16.111Z,2.50
2022-12-09T04:57:44.950Z,2.50
2022-12-09T05:00:16.370Z,2.50
2022-12-09T05:02:45.492Z,2.50
2022-12-09T05:05:14.416Z,2.50
2022-12-09T05:07:43.606Z,2.50
2022-12-09T05:10:13.120Z,2.50
2022-12-09T05:12:42.158Z,2.50
2022-12-09T05:15:11.645Z,2.50
2022-12-09T05:17:41.697Z,2.50
2022-12-09T05:20:11.686Z,2.40
2022-12-09T05:22:40.644Z,2.40
2022-12-09T05:25:10.285Z,2.40
2022-12-09T05:27:40.058Z,2.30
2022-12-09T05:30:10.128Z,2.30
2022-12-09T05:32:39.251Z,2.20
2022-12-09T05:35:10.393Z,2.20
2022-12-09T05:37:39.096Z,2.10
2022-12-09T05:40:09.400Z,2.10
2022-12-09T05:42:41.650Z,2.00
2022-12-09T05:45:11.939Z,2.00
2022-12-09T05:47:41.829Z,2.00
2022-12-09T05:50:12.831Z,1.90
2022-12-09T05:52:42.100Z,1.90
2022-12-09T05:55:12.018Z,1.90
2022-12-09T05:57:40.946Z,1.90
2022-12-09T06:00:10.857Z,1.80
2022-12-09T06:02:42.664Z,1.80
2022-12-09T06:05:12.950Z,1.80
2022-12-09T06:07:42.360Z,1.80
2022-12-09T06:10:12.094Z,1.70
2022-12-09T06:12:41.097Z,1.70
2022-12-09T06:15:11.985Z,1.60
2022-12-09T06:17:42.532Z,1.60
2022-12-09T06:20:15.162Z,1.50
2022-12-09T06:22:44.653Z,1.50
2022-12-09T06:25:16.541Z,1.50
2022-12-09T06:27:45.680Z,1.50
2022-12-09T06:30:14.973Z,1.40
2022-12-09T06:32:43.817Z,1.40
2022-12-09T06:35:14.803Z,1.40
2022-12-09T06:37:44.241Z,1.40
2022-12-09T06:40:13.737Z,1.30
2022-12-09T06:42:42.529Z,1.30
2022-12-09T06:45:12.846Z,1.30
2022-12-09T06:47:42.218Z,1.30
2022-12-09T06:50:13.896Z,1.30
2022-12-09T06:52:42.926Z,1.30
2022-12-09T06:55:13.084Z,1.30
2022-12-09T06:57:42.522Z,1.30
2022-12-09T07:00:12.060Z,1.30
2022-12-09T07:02:40.970Z,1.30
2022-12-09T07:05:11.426Z,1.30
2022-12-09T07:07:41.850Z,1.40
2022-12-09T07:10:12.205Z,1.40
2022-12-09T07:12:41.266Z,1.40
2022-12-09T07:15:12.148Z,1.40
2022-12-09T07:17:41.478Z,1.40
2022-12-09T07:20:11.212Z,1.40
2022-12-09T07:22:41.407Z,1.40
2022-12-09T07:25:11.184Z,1.40
2022-12-09T07:27:41.153Z,1.30
2022-12-09T07:30:10.965Z,1.40
2022-12-09T07:32:39.954Z,1.30
2022-12-09T07:35:10.762Z,1.30
2022-12-09T07:37:41.393Z,1.40
2022-12-09T07:40:11.193Z,1.40
2022-12-09T07:42:39.894Z,1.40
2022-12-09T07:45:10.542Z,1.40
2022-12-09T07:47:39.402Z,1.40
2022-12-09T07:50:09.297Z,1.40
2022-12-09T07:52:38.406Z,1.40
2022-12-09T07:55:10.699Z,1.40
2022-12-09T07:57:39.554Z,1.40
2022-12-09T08:00:09.992Z,1.40
2022-12-09T08:02:42.832Z,1.50
2022-12-09T08:05:12.096Z,1.50
2022-12-09T08:07:44.531Z,1.50
2022-12-09T08:10:15.567Z,1.60
2022-12-09T08:12:44.360Z,1.50
2022-12-09T08:15:13.627Z,1.60
2022-12-09T08:17:47.177Z,1.60
2022-12-09T08:20:16.742Z,2.60
2022-12-09T08:22:46.109Z,1.60
2022-12-09T08:25:16.666Z,1.60
2022-12-09T08:27:45.729Z,1.60
2022-12-09T08:30:15.331Z,1.60
2022-12-09T08:32:44.370Z,1.70
2022-12-09T08:35:15.290Z,1.70
2022-12-09T08:37:44.458Z,1.70
2022-12-09T08:40:14.268Z,1.70
2022-12-09T08:42:45.153Z,1.70
2022-12-09T08:45:13.857Z,1.80
2022-12-09T08:47:43.533Z,1.80
2022-12-09T08:50:12.991Z,1.90
2022-12-09T08:52:43.032Z,1.90
2022-12-09T08:55:12.144Z,2.00
2022-12-09T08:57:41.147Z,2.00
2022-12-09T09:00:12.602Z,2.00
2022-12-09T09:02:42.120Z,2.10
2022-12-09T09:05:11.596Z,2.10
2022-12-09T09:07:41.718Z,2.20
2022-12-09T09:10:11.787Z,2.30
2022-12-09T09:12:43.625Z,2.30
2022-12-09T09:15:14.849Z,2.30
2022-12-09T09:17:51.294Z,2.40
2022-12-09T09:20:21.592Z,2.50
2022-12-09T09:22:50.310Z,2.50
2022-12-09T09:25:19.303Z,2.60
2022-12-09T09:27:48.423Z,2.60
2022-12-09T09:30:19.060Z,2.70
2022-12-09T09:32:47.880Z,2.70
2022-12-09T09:35:17.982Z,2.70
2022-12-09T09:37:47.083Z,2.80
2022-12-09T09:40:16.811Z,2.80
2022-12-09T09:42:49.207Z,2.90
2022-12-09T09:45:22.094Z,2.90
2022-12-09T09:47:55.260Z,3.00
2022-12-09T09:50:31.169Z,3.00
2022-12-09T09:53:03.193Z,3.10
2022-12-09T09:55:43.879Z,3.10
2022-12-09T09:58:18.257Z,3.20
2022-12-09T10:00:58.416Z,3.30
2022-12-09T10:03:37.035Z,3.30
2022-12-09T10:06:19.952Z,3.40
2022-12-09T10:08:57.284Z,3.40
2022-12-09T10:11:33.440Z,3.40
2022-12-09T10:14:10.115Z,3.50
2022-12-09T10:16:45.136Z,3.50
2022-12-09T10:19:20.963Z,3.50
2022-12-09T10:21:54.567Z,3.60
2022-12-09T10:24:27.728Z,3.60
2022-12-09T10:27:06.898Z,3.60
2022-12-09T10:29:55.263Z,3.60
2022-12-09T10:32:29.014Z,3.70
2022-12-09T10:34:58.493Z,3.70
2022-12-09T10:37:31.636Z,3.60
2022-12-09T10:40:06.185Z,3.60
2022-12-09T10:43:00.049Z,3.60
2022-12-09T10:45:40.341Z,3.50
2022-12-09T10:48:32.704Z,3.50
2022-12-09T10:51:05.304Z,3.50
2022-12-09T10:53:36.825Z,3.50
2022-12-09T10:56:08.518Z,3.50
2022-12-09T10:58:37.342Z,3.50
2022-12-09T11:01:09.565Z,3.40
2022-12-09T11:03:48.177Z,3.40
2022-12-09T11:06:23.910Z,3.40
2022-12-09T11:08:56.659Z,3.30
2022-12-09T11:11:44.635Z,3.30
2022-12-09T11:14:24.031Z,3.30
2022-12-09T11:16:54.767Z,3.30
2022-12-09T11:19:34.111Z,3.30
2022-12-09T11:22:23.093Z,3.30
2022-12-09T11:24:54.770Z,3.30
2022-12-09T11:27:29.752Z,3.30
2022-12-09T11:30:14.491Z,3.30
2022-12-09T11:32:58.763Z,3.40
2022-12-09T11:35:33.215Z,3.50
2022-12-09T11:38:15.672Z,3.40
2022-12-09T11:40:45.049Z,3.40
2022-12-09T11:43:13.913Z,3.50
2022-12-09T11:45:47.126Z,3.50
2022-12-09T11:48:30.286Z,3.60
2022-12-09T11:51:03.976Z,3.70
2022-12-09T11:53:34.140Z,3.70
2022-12-09T11:56:08.250Z,3.80
2022-12-09T11:58:44.635Z,3.90
2022-12-09T12:01:16.892Z,4.00
2022-12-09T12:03:48.980Z,4.20
2022-12-09T12:06:23.682Z,4.20
2022-12-09T12:08:55.803Z,4.30
2022-12-09T12:11:29.741Z,4.30
2022-12-09T12:14:05.049Z,4.40
2022-12-09T12:16:39.944Z,4.50
2022-12-09T12:19:15.991Z,4.60
2022-12-09T12:22:08.272Z,4.70
2022-12-09T12:25:00.427Z,4.80
2022-12-09T12:27:42.599Z,4.90
2022-12-09T12:30:13.651Z,4.90
2022-12-09T12:35:57.944Z,5.00
2022-12-09T12:38:42.106Z,5.00
2022-12-09T12:41:18.047Z,4.90
2022-12-09T12:44:32.755Z,5.00
2022-12-09T12:47:08.287Z,4.90
2022-12-09T12:49:52.357Z,4.80
2022-12-09T12:52:54.924Z,4.70
2022-12-09T12:55:42.970Z,4.70
2022-12-09T12:58:17.988Z,4.60
2022-12-09T13:01:00.463Z,4.50
2022-12-09T13:03:37.083Z,4.40
2022-12-09T13:06:10.068Z,4.40
2022-12-09T13:08:43.690Z,4.30
2022-12-09T13:11:20.542Z,4.30
2022-12-09T13:13:53.335Z,4.30
2022-12-09T13:16:27.594Z,4.30
2022-12-09T13:19:12.399Z,4.30
2022-12-09T13:21:41.712Z,4.30
2022-12-09T13:24:26.244Z,4.40
2022-12-09T13:27:03.275Z,4.30
2022-12-09T13:29:40.896Z,4.40
2022-12-09T13:32:24.366Z,4.40
2022-12-09T13:34:56.423Z,4.40
2022-12-09T13:37:54.830Z,4.40
2022-12-09T13:40:36.786Z,4.40
2022-12-09T13:43:13.178Z,4.40
2022-12-09T13:45:54.652Z,4.50
2022-12-09T13:48:48.425Z,4.40
2022-12-09T13:51:18.472Z,4.40
2022-12-09T13:53:51.534Z,4.40
2022-12-09T13:56:27.548Z,4.40
2022-12-09T13:59:23.104Z,4.40
2022-12-09T14:01:54.902Z,4.40
2022-12-09T14:04:27.921Z,4.40
2022-12-09T14:07:09.829Z,4.40
2022-12-09T14:09:48.300Z,4.30
2022-12-09T14:13:01.078Z,4.30
2022-12-09T14:15:41.566Z,4.30
2022-12-09T14:18:33.008Z,4.30
2022-12-09T14:21:30.783Z,4.40
2022-12-09T14:24:42.431Z,4.40
2022-12-09T14:27:16.752Z,4.30
2022-12-09T14:29:52.111Z,4.30
2022-12-09T14:32:27.758Z,4.30
2022-12-09T14:35:26.561Z,4.30
2022-12-09T14:38:11.090Z,4.30
2022-12-09T14:40:52.817Z,4.30
2022-12-09T14:44:09.464Z,4.30
2022-12-09T14:46:40.620Z,4.30
2022-12-09T14:49:17.611Z,4.30
2022-12-09T14:51:49.275Z,4.20
2022-12-09T14:54:22.985Z,4.20
2022-12-09T14:56:54.311Z,4.20
2022-12-09T14:59:25.078Z,4.20
2022-12-09T15:01:56.925Z,4.10
2022-12-09T15:04:31.216Z,4.10
2022-12-09T15:07:14.962Z,4.10
2022-12-09T15:09:55.597Z,4.00
2022-12-09T15:12:30.242Z,4.00
2022-12-09T15:15:04.398Z,4.00
2022-12-09T15:17:38.916Z,3.90
2022-12-09T15:20:20.232Z,3.80
2022-12-09T15:22:53.343Z,3.80
2022-12-09T15:25:23.728Z,3.80
2022-12-09T15:28:01.442Z,3.70
2022-12-09T15:30:33.512Z,3.70
2022-12-09T15:33:03.136Z,3.70
2022-12-09T15:35:34.855Z,3.60
2022-12-09T15:38:07.643Z,3.60
2022-12-09T15:40:37.706Z,3.60
2022-12-09T15:43:09.770Z,3.60
2022-12-09T15:45:43.282Z,3.50
2022-12-09T15:48:18.756Z,3.50
2022-12-09T15:50:50.714Z,3.50
2022-12-09T15:53:23.161Z,3.40
2022-12-09T15:55:54.252Z,3.40
2022-12-09T15:58:26.717Z,3.40
2022-12-09T16:00:55.829Z,3.30
2022-12-09T16:03:27.674Z,3.30
2022-12-09T16:06:00.712Z,3.30
2022-12-09T16:08:34.925Z,3.30
2022-12-09T16:11:04.144Z,3.30
2022-12-09T16:13:33.022Z,3.30
2022-12-09T16:16:03.216Z,3.30
2022-12-09T16:18:35.421Z,3.20
2022-12-09T16:21:25.670Z,3.20
2022-12-09T16:23:57.122Z,3.20
2022-12-09T16:26:32.186Z,3.20
2022-12-09T16:29:02.932Z,3.30
2022-12-09T16:31:31.790Z,3.30
2022-12-09T16:34:00.533Z,3.30
2022-12-09T16:36:32.551Z,3.30
2022-12-09T16:39:35.279Z,3.30
2022-12-09T16:42:04.009Z,3.30
2022-12-09T16:44:35.313Z,3.30
2022-12-09T16:47:11.474Z,3.30
2022-12-09T16:49:41.345Z,3.20
2022-12-09T16:52:15.124Z,3.30
2022-12-09T16:54:44.768Z,3.30
2022-12-09T16:57:15.025Z,3.20
2022-12-09T16:59:43.984Z,3.20
2022-12-09T17:02:19.976Z,3.20
2022-12-09T17:04:50.044Z,3.20
2022-12-09T17:07:20.029Z,3.20
2022-12-09T17:09:48.570Z,3.20
2022-12-09T17:12:17.217Z,3.10
2022-12-09T17:14:45.856Z,3.10
2022-12-09T17:17:14.524Z,3.00
2022-12-09T17:19:44.299Z,3.00
2022-12-09T17:22:12.843Z,2.90
2022-12-09T17:24:42.918Z,3.00
2022-12-09T17:27:11.618Z,3.00
2022-12-09T17:29:40.206Z,2.90
2022-12-09T17:32:09.347Z,2.90
2022-12-09T17:34:38.275Z,2.90
2022-12-09T17:37:06.914Z,2.90
2022-12-09T17:39:35.937Z,2.80
2022-12-09T17:42:06.252Z,2.80
2022-12-09T17:44:35.097Z,2.80
2022-12-09T17:47:03.775Z,2.70
2022-12-09T17:49:32.398Z,2.70
2022-12-09T17:52:01.048Z,2.60
2022-12-09T17:54:29.684Z,2.60
2022-12-09T17:56:58.272Z,2.50
2022-12-09T17:59:28.276Z,2.40
2022-12-09T18:01:56.857Z,2.40
2022-12-09T18:04:25.408Z,2.40
2022-12-09T18:06:53.939Z,2.40
2022-12-09T18:09:23.482Z,2.30
2022-12-09T18:11:52.437Z,2.30
2022-12-09T18:14:21.259Z,2.30
2022-12-09T18:16:51.231Z,2.30
2022-12-09T18:19:23.305Z,2.30
2022-12-09T18:21:52.192Z,2.20
2022-12-09T18:24:20.790Z,2.20
2022-12-09T18:26:49.349Z,2.10
2022-12-09T18:29:18.028Z,2.10
2022-12-09T18:31:49.578Z,2.00
2022-12-09T18:34:23.185Z,2.00
2022-12-09T18:36:52.091Z,1.90
2022-12-09T18:39:20.967Z,1.90
2022-12-09T18:41:49.749Z,1.80
2022-12-09T18:44:18.385Z,1.80
2022-12-09T18:46:49.031Z,1.80
2022-12-09T18:49:20.041Z,1.70
2022-12-09T18:51:51.592Z,1.70
2022-12-09T18:54:23.341Z,1.70
2022-12-09T18:56:52.150Z,1.60
2022-12-09T18:59:22.077Z,1.60
2022-12-09T19:01:51.111Z,1.60
2022-12-09T19:04:21.582Z,1.60
2022-12-09T19:06:53.221Z,1.50
2022-12-09T19:09:23.277Z,1.50
2022-12-09T19:11:53.273Z,1.40
2022-12-09T19:14:23.510Z,1.40
2022-12-09T19:16:53.921Z,1.40
2022-12-09T19:19:24.524Z,1.40
2022-12-09T19:21:55.905Z,1.30
2022-12-09T19:24:26.207Z,1.30
2022-12-09T19:26:56.572Z,1.20
2022-12-09T19:29:27.932Z,1.20
2022-12-09T19:31:58.269Z,1.20
2022-12-09T19:34:28.788Z,1.20
2022-12-09T19:37:01.261Z,1.10
2022-12-09T19:39:34.123Z,1.10
2022-12-09T19:42:03.228Z,1.00
2022-12-09T19:44:59.561Z,1.00
2022-12-09T19:47:20.403Z,1.00
2022-12-09T19:49:49.478Z,1.00
2022-12-09T19:52:19.536Z,1.00
2022-12-09T19:54:48.012Z,0.90
2022-12-09T19:57:16.670Z,0.90
2022-12-09T19:59:47.338Z,0.90
2022-12-09T20:02:15.994Z,0.90
2022-12-09T20:04:49.682Z,0.80
2022-12-09T20:07:20.895Z,0.80
2022-12-09T20:09:49.870Z,0.80
2022-12-09T20:12:18.462Z,0.80
2022-12-09T20:14:46.985Z,0.70
2022-12-09T20:17:16.551Z,0.70
2022-12-09T20:19:45.080Z,0.70
2022-12-09T20:22:13.689Z,0.60
2022-12-09T20:24:44.173Z,0.60
2022-12-09T20:27:12.828Z,0.50
2022-12-09T20:29:41.508Z,2.10
2022-12-09T20:32:10.440Z,0.50
2022-12-09T20:34:39.545Z,0.50
2022-12-09T20:37:08.316Z,0.50
2022-12-09T20:39:36.991Z,0.40
2022-12-09T20:42:06.981Z,0.40
2022-12-09T20:44:35.573Z,0.40
2022-12-09T20:47:04.244Z,0.40
2022-12-09T20:49:32.723Z,0.40
2022-12-09T20:52:01.320Z,0.40
2022-12-09T20:54:30.001Z,0.40
2022-12-09T20:56:58.692Z,0.40
2022-12-09T20:59:28.801Z,0.50
2022-12-09T21:01:57.457Z,0.50
2022-12-09T21:04:26.162Z,0.40
2022-12-09T21:06:54.799Z,0.40
2022-12-09T21:09:26.963Z,0.50
2022-12-09T21:11:55.520Z,0.50
2022-12-09T21:14:28.136Z,0.50
2022-12-09T21:17:02.959Z,0.50
2022-12-09T21:19:32.521Z,0.50
2022-12-09T21:22:01.403Z,0.60
2022-12-09T21:24:29.970Z,0.60
2022-12-09T21:26:58.480Z,0.60
2022-12-09T21:29:31.883Z,0.60
2022-12-09T21:32:03.048Z,0.60
2022-12-09T21:34:31.750Z,0.60
2022-12-09T21:37:00.331Z,0.70
2022-12-09T21:39:29.334Z,0.70
2022-12-09T21:41:57.939Z,0.70
2022-12-09T21:44:27.204Z,0.70
2022-12-09T21:46:55.757Z,0.70
2022-12-09T21:49:26.075Z,0.70
2022-12-09T21:51:54.524Z,0.70
2022-12-09T21:54:23.024Z,0.70
2022-12-09T21:56:51.682Z,0.80
2022-12-09T21:59:20.287Z,0.70
2022-12-09T22:01:48.746Z,0.80
2022-12-09T22:04:18.046Z,0.80
2022-12-09T22:06:49.849Z,0.80
2022-12-09T22:09:20.955Z,0.80
2022-12-09T22:11:49.691Z,0.80
2022-12-09T22:14:18.373Z,0.80
2022-12-09T22:16:47.465Z,0.80
2022-12-09T22:19:18.701Z,0.80
2022-12-09T22:21:49.421Z,0.80
2022-12-09T22:24:18.750Z,0.80
2022-12-09T22:26:47.720Z,0.80
2022-12-09T22:29:17.507Z,0.80
2022-12-09T22:31:46.859Z,0.80
2022-12-09T22:34:17.697Z,0.80
2022-12-09T22:36:48.615Z,0.80
2022-12-09T22:39:19.267Z,0.70
2022-12-09T22:41:47.970Z,0.70
2022-12-09T22:44:19.290Z,0.70
2022-12-09T22:46:48.292Z,0.70
2022-12-09T22:49:17.765Z,0.70
2022-12-09T22:51:48.426Z,0.60
2022-12-09T22:54:17.099Z,0.60
2022-12-09T22:56:46.018Z,0.60
2022-12-09T22:59:15.495Z,0.60
2022-12-09T23:01:45.954Z,0.60
2022-12-09T23:04:16.495Z,0.60
2022-12-09T23:06:45.667Z,0.60
2022-12-09T23:09:18.802Z,0.60
2022-12-09T23:11:48.194Z,0.60
2022-12-09T23:14:17.213Z,0.60
2022-12-09T23:16:46.289Z,0.60
2022-12-09T23:19:14.792Z,0.60
2022-12-09T23:21:44.074Z,0.60
2022-12-09T23:24:24.323Z,0.70
2022-12-09T23:26:55.636Z,0.50
2022-12-09T23:29:24.443Z,0.50
2022-12-09T23:36:48.772Z,0.50
2022-12-09T23:39:20.008Z,0.40
2022-12-09T23:41:49.983Z,0.40
2022-12-09T23:44:19.764Z,0.30
2022-12-09T23:46:48.430Z,0.30
2022-12-09T23:49:17.691Z,0.20
2022-12-09T23:51:46.394Z,0.30
2022-12-09T23:54:16.932Z,0.20
2022-12-09T23:56:49.896Z,0.10
2022-12-09T23:59:21.195Z,0.10
